createdAt,value
2023-06-29T00:04:42.758Z,16.39
2023-06-29T00:09:46.104Z,16.45
2023-06-29T00:14:48.888Z,16.49
2023-06-29T00:19:51.768Z,16.55
2023-06-29T00:25:00.214Z,16.59
2023-06-29T00:30:03.132Z,16.62
2023-06-29T00:35:06.389Z,16.64
2023-06-29T00:40:10.877Z,16.64
2023-06-29T00:45:14.700Z,16.64
2023-06-29T00:50:18.379Z,16.66
2023-06-29T00:55:21.742Z,16.69
2023-06-29T01:00:25.175Z,16.69
2023-06-29T01:05:34.358Z,16.69
2023-06-29T01:10:37.596Z,16.68
2023-06-29T01:15:42.225Z,16.65
2023-06-29T01:20:50.038Z,16.59
2023-06-29T01:25:56.001Z,16.52
2023-06-29T01:30:59.742Z,16.51
2023-06-29T01:36:12.304Z,16.56
2023-06-29T01:41:18.041Z,16.62
2023-06-29T01:46:22.678Z,16.68
2023-06-29T01:51:25.668Z,16.77
2023-06-29T01:56:28.635Z,16.81
2023-06-29T02:01:31.790Z,16.86
2023-06-29T02:06:34.715Z,16.90
2023-06-29T02:11:37.484Z,16.97
2023-06-29T02:16:40.314Z,17.02
2023-06-29T02:21:43.112Z,17.05
2023-06-29T02:26:45.916Z,17.04
2023-06-29T02:31:49.392Z,17.01
2023-06-29T02:36:52.218Z,16.96
2023-06-29T02:41:54.974Z,16.93
2023-06-29T02:46:57.707Z,16.86
2023-06-29T02:52:00.921Z,16.83
2023-06-29T02:57:04.047Z,16.85
2023-06-29T03:02:07.213Z,16.85
2023-06-29T03:07:10.288Z,16.83
2023-06-29T03:12:13.529Z,16.82
2023-06-29T03:17:16.467Z,16.78
2023-06-29T03:22:19.309Z,16.78
2023-06-29T03:27:22.039Z,16.81
2023-06-29T03:32:24.862Z,16.89
2023-06-29T03:37:27.617Z,16.99
2023-06-29T03:42:30.376Z,17.02
2023-06-29T03:47:33.135Z,17.05
2023-06-29T03:52:35.950Z,17.12
2023-06-29T03:57:38.920Z,17.21
2023-06-29T04:02:41.895Z,17.31
2023-06-29T04:07:45.042Z,17.48
2023-06-29T04:12:47.964Z,17.73
2023-06-29T04:17:51.302Z,18.01
2023-06-29T04:22:54.193Z,18.11
2023-06-29T04:27:57.396Z,18.18
2023-06-29T04:33:10.969Z,18.37
2023-06-29T04:38:14.614Z,18.57
2023-06-29T04:43:17.521Z,18.74
2023-06-29T04:48:20.797Z,18.97
2023-06-29T04:53:23.517Z,19.16
2023-06-29T04:58:26.856Z,19.30
2023-06-29T05:03:29.728Z,19.43
2023-06-29T05:08:32.668Z,19.56
2023-06-29T05:13:37.365Z,19.74
2023-06-29T05:18:40.852Z,20.00
2023-06-29T05:23:44.331Z,20.16
2023-06-29T05:29:00.488Z,20.38
2023-06-29T05:34:08.276Z,20.67
2023-06-29T05:39:11.659Z,20.90
2023-06-29T05:44:14.494Z,20.96
2023-06-29T05:49:18.177Z,20.99
2023-06-29T05:54:20.958Z,21.27
2023-06-29T05:59:24.106Z,21.64
2023-06-29T06:04:27.218Z,22.04
2023-06-29T06:09:30.390Z,22.18
2023-06-29T06:14:33.790Z,22.64
2023-06-29T06:19:36.586Z,23.66
2023-06-29T06:24:39.525Z,24.95
2023-06-29T06:29:42.431Z,26.03
2023-06-29T06:34:47.308Z,27.07
2023-06-29T06:39:50.310Z,28.11
2023-06-29T06:44:54.534Z,28.97
2023-06-29T06:49:57.355Z,29.51
2023-06-29T06:55:00.540Z,29.99
2023-06-29T07:00:04.700Z,30.55
2023-06-29T07:05:08.067Z,31.32
2023-06-29T07:10:11.114Z,31.55
2023-06-29T07:15:13.927Z,31.42
2023-06-29T07:25:22.571Z,32.81
2023-06-29T07:30:25.719Z,33.45
2023-06-29T07:35:28.577Z,33.73
2023-06-29T07:40:31.540Z,33.96
2023-06-29T07:45:34.403Z,34.36
2023-06-29T07:50:37.511Z,34.58
2023-06-29T07:55:40.616Z,34.83
2023-06-29T08:00:43.458Z,35.23
2023-06-29T08:10:52.285Z,36.28
2023-06-29T08:15:55.707Z,36.72
2023-06-29T08:20:58.529Z,37.29
2023-06-29T08:26:01.418Z,37.97
2023-06-29T08:31:06.509Z,38.52
2023-06-29T08:36:10.331Z,39.07
2023-06-29T08:41:15.141Z,39.40
2023-06-29T08:46:18.110Z,39.71
2023-06-29T08:51:23.352Z,39.73
2023-06-29T08:56:26.811Z,39.70
2023-06-29T09:01:31.065Z,40.31
2023-06-29T09:06:34.113Z,41.07
2023-06-29T09:11:37.371Z,39.83
2023-06-29T09:16:54.090Z,39.00
2023-06-29T09:21:58.615Z,39.86
2023-06-29T09:27:02.791Z,39.46
2023-06-29T09:32:06.334Z,39.23
2023-06-29T09:37:14.493Z,39.91
2023-06-29T09:42:17.456Z,38.73
2023-06-29T09:52:46.299Z,37.95
2023-06-29T09:57:51.386Z,37.67
2023-06-29T10:02:55.443Z,36.37
2023-06-29T10:07:59.235Z,35.06
2023-06-29T10:13:06.062Z,34.89
2023-06-29T10:18:13.225Z,36.82
2023-06-29T10:23:18.993Z,38.96
2023-06-29T10:28:23.048Z,40.69
2023-06-29T10:33:25.800Z,39.43
2023-06-29T10:38:33.686Z,35.97
2023-06-29T10:43:59.712Z,34.51
2023-06-29T10:49:02.583Z,36.44
2023-06-29T10:54:05.431Z,38.80
2023-06-29T10:59:09.601Z,38.92
2023-06-29T11:04:13.212Z,38.38
2023-06-29T11:09:16.243Z,37.92
2023-06-29T11:14:20.208Z,39.13
2023-06-29T11:19:28.672Z,39.60
2023-06-29T11:24:31.708Z,39.14
2023-06-29T11:29:34.591Z,40.24
2023-06-29T11:34:37.371Z,41.36
2023-06-29T11:39:40.090Z,41.81
2023-06-29T11:44:42.879Z,41.80
2023-06-29T11:49:50.624Z,40.57
2023-06-29T11:54:54.291Z,39.48
2023-06-29T11:59:57.080Z,39.14
2023-06-29T12:05:03.041Z,38.91
2023-06-29T12:10:11.436Z,38.84
2023-06-29T12:15:22.716Z,39.37
2023-06-29T12:20:26.303Z,40.62
2023-06-29T12:25:29.191Z,41.38
2023-06-29T12:30:31.934Z,40.54
2023-06-29T12:35:34.690Z,40.23
2023-06-29T12:40:39.392Z,39.89
2023-06-29T12:45:42.288Z,40.17
2023-06-29T12:50:45.878Z,40.76
2023-06-29T12:55:49.144Z,40.70
2023-06-29T13:00:53.144Z,39.50
2023-06-29T13:05:56.325Z,38.65
2023-06-29T13:10:59.736Z,38.17
2023-06-29T13:16:02.811Z,37.44
2023-06-29T13:21:05.628Z,37.87
2023-06-29T13:26:08.382Z,37.30
2023-06-29T13:31:11.388Z,37.33
2023-06-29T13:36:14.360Z,37.56
2023-06-29T13:41:19.954Z,37.39
2023-06-29T13:46:22.686Z,36.32
2023-06-29T13:51:25.819Z,36.19
2023-06-29T13:56:30.156Z,36.29
2023-06-29T14:01:33.456Z,35.87
2023-06-29T14:06:39.850Z,35.59
2023-06-29T14:11:42.844Z,35.25
2023-06-29T14:16:46.662Z,34.88
2023-06-29T14:21:49.463Z,34.64
2023-06-29T14:26:54.395Z,34.51
2023-06-29T14:31:57.272Z,34.37
2023-06-29T14:37:00.216Z,34.04
2023-06-29T14:42:03.005Z,33.69
2023-06-29T14:47:06.392Z,33.12
2023-06-29T14:52:09.179Z,32.50
2023-06-29T14:57:12.261Z,31.93
2023-06-29T15:02:15.559Z,31.61
2023-06-29T15:07:18.356Z,31.66
2023-06-29T15:12:22.373Z,31.90
2023-06-29T15:17:26.463Z,31.88
2023-06-29T15:22:29.237Z,31.53
2023-06-29T15:27:32.051Z,31.31
2023-06-29T15:32:34.833Z,31.38
2023-06-29T15:37:37.751Z,31.30
2023-06-29T15:42:40.516Z,31.31
2023-06-29T15:47:43.432Z,30.98
2023-06-29T15:52:46.392Z,30.51
2023-06-29T15:57:49.748Z,30.16
2023-06-29T16:02:52.495Z,29.85
2023-06-29T16:07:58.344Z,29.52
2023-06-29T16:13:01.122Z,29.27
2023-06-29T16:18:04.299Z,29.01
2023-06-29T16:23:07.242Z,28.72
2023-06-29T16:28:10.065Z,28.45
2023-06-29T16:33:12.844Z,28.14
2023-06-29T16:38:15.794Z,27.91
2023-06-29T16:43:18.683Z,27.73
2023-06-29T16:48:21.873Z,27.46
2023-06-29T16:53:24.608Z,27.24
2023-06-29T16:58:28.774Z,27.04
2023-06-29T17:03:32.370Z,26.80
2023-06-29T17:08:35.454Z,26.52
2023-06-29T17:13:38.169Z,26.26
2023-06-29T17:18:40.999Z,26.02
2023-06-29T17:23:43.867Z,25.71
2023-06-29T17:28:46.619Z,25.45
2023-06-29T17:33:55.062Z,25.20
2023-06-29T17:38:58.657Z,24.97
2023-06-29T17:44:01.437Z,24.81
2023-06-29T17:49:04.182Z,24.59
2023-06-29T17:54:06.931Z,24.36
2023-06-29T17:59:09.728Z,24.17
2023-06-29T18:04:13.321Z,23.99
2023-06-29T18:09:16.472Z,23.84
2023-06-29T18:14:19.257Z,23.67
2023-06-29T18:19:22.015Z,23.46
2023-06-29T18:24:24.768Z,23.22
2023-06-29T18:29:30.317Z,22.96
2023-06-29T18:34:33.230Z,22.74
2023-06-29T18:39:35.973Z,22.55
2023-06-29T18:44:39.173Z,22.33
2023-06-29T18:49:52.233Z,22.13
2023-06-29T18:54:57.278Z,21.89
2023-06-29T19:00:00.725Z,21.65
2023-06-29T19:05:04.221Z,21.45
2023-06-29T19:10:07.777Z,21.25
2023-06-29T19:15:11.108Z,21.02
2023-06-29T19:20:13.894Z,20.80
2023-06-29T19:25:16.765Z,20.59
2023-06-29T19:30:19.510Z,20.42
2023-06-29T19:35:22.364Z,20.25
2023-06-29T19:40:25.487Z,20.07
2023-06-29T19:45:28.377Z,19.92
2023-06-29T19:50:31.339Z,19.76
2023-06-29T19:55:35.888Z,19.63
2023-06-29T20:00:38.732Z,19.49
2023-06-29T20:05:42.965Z,19.35
2023-06-29T20:10:48.556Z,19.21
2023-06-29T20:15:51.496Z,19.07
2023-06-29T20:20:54.505Z,18.96
2023-06-29T20:25:57.251Z,18.87
2023-06-29T20:31:00.059Z,18.78
2023-06-29T20:36:03.487Z,18.72
2023-06-29T20:41:06.246Z,18.67
2023-06-29T20:46:09.025Z,18.63
2023-06-29T20:51:16.943Z,18.59
2023-06-29T20:56:20.935Z,18.52
2023-06-29T21:01:25.016Z,18.44
2023-06-29T21:06:28.150Z,18.36
2023-06-29T21:11:32.412Z,18.27
2023-06-29T21:16:35.658Z,18.18
2023-06-29T21:21:38.958Z,18.12
2023-06-29T21:26:41.762Z,18.06
2023-06-29T21:31:45.389Z,17.96
2023-06-29T21:36:48.941Z,17.85
2023-06-29T21:41:51.769Z,17.75
2023-06-29T21:46:54.661Z,17.64
2023-06-29T21:51:57.637Z,17.58
2023-06-29T21:57:00.395Z,17.57
2023-06-29T22:02:03.232Z,17.60
2023-06-29T22:12:14.733Z,17.60
2023-06-29T22:17:17.625Z,17.53
2023-06-29T22:22:20.354Z,17.42
2023-06-29T22:27:23.107Z,17.31
2023-06-29T22:32:26.323Z,17.23
2023-06-29T22:37:29.279Z,17.15
2023-06-29T22:42:32.030Z,17.08
2023-06-29T22:47:34.796Z,17.01
2023-06-29T22:52:37.682Z,17.00
2023-06-29T22:57:40.852Z,16.97
2023-06-29T23:02:43.798Z,16.91
2023-06-29T23:07:47.739Z,16.84
2023-06-29T23:12:50.508Z,16.76
2023-06-29T23:17:54.940Z,16.67
2023-06-29T23:22:58.951Z,16.57
2023-06-29T23:28:04.489Z,16.47
2023-06-29T23:33:09.752Z,16.40
2023-06-29T23:38:12.824Z,16.34
2023-06-29T23:43:15.698Z,16.33
2023-06-29T23:48:18.508Z,16.31
2023-06-29T23:53:21.509Z,16.29
2023-06-29T23:58:24.485Z,16.22
